createdAt,value
2019-04-25T00:01:07.468Z,6.80
2019-04-25T00:03:45.130Z,6.80
2019-04-25T00:10:06.182Z,5.50
2019-04-25T00:12:42.361Z,6.30
2019-04-25T00:15:15.583Z,7.47
2019-04-25T00:17:49.104Z,6.33
2019-04-25T00:20:23.249Z,7.00
2019-04-25T00:23:18.698Z,6.00
2019-04-25T00:26:11.447Z,5.93
2019-04-25T00:28:49.143Z,6.97
2019-04-25T00:31:21.974Z,6.93
2019-04-25T00:33:56.631Z,5.63
2019-04-25T00:36:31.850Z,7.57
2019-04-25T00:39:09.081Z,7.60
2019-04-25T00:41:46.147Z,6.20
2019-04-25T00:44:19.470Z,6.70
2019-04-25T00:46:56.872Z,6.23
2019-04-25T00:49:33.395Z,6.50
2019-04-25T00:52:07.307Z,5.97
2019-04-25T00:54:44.792Z,6.53
2019-04-25T00:57:19.107Z,6.53
2019-04-25T01:00:01.956Z,6.90
2019-04-25T01:02:44.075Z,5.93
2019-04-25T01:05:18.884Z,5.60
2019-04-25T01:07:53.253Z,7.87
2019-04-25T01:10:27.310Z,7.23
2019-04-25T01:13:01.127Z,7.47
2019-04-25T01:15:36.751Z,5.93
2019-04-25T01:18:09.915Z,6.90
2019-04-25T01:20:43.752Z,6.87
2019-04-25T01:23:20.152Z,6.13
2019-04-25T01:25:55.852Z,6.70
2019-04-25T01:28:28.251Z,6.83
2019-04-25T01:31:03.797Z,6.07
2019-04-25T01:33:38.420Z,5.93
2019-04-25T01:36:26.371Z,7.40
2019-04-25T01:39:14.380Z,6.97
2019-04-25T01:42:14.080Z,6.27
2019-04-25T01:44:51.661Z,6.90
2019-04-25T01:47:34.551Z,6.27
2019-04-25T01:50:09.930Z,7.40
2019-04-25T01:52:41.282Z,6.27
2019-04-25T01:55:14.710Z,6.70
2019-04-25T01:57:47.187Z,6.60
2019-04-25T02:00:29.314Z,6.90
2019-04-25T02:03:06.629Z,6.23
2019-04-25T02:05:43.814Z,6.90
2019-04-25T02:08:15.166Z,6.77
2019-04-25T02:10:56.988Z,7.50
2019-04-25T02:13:30.562Z,6.83
2019-04-25T02:16:02.023Z,6.47
2019-04-25T02:18:37.144Z,8.20
2019-04-25T02:21:08.930Z,6.87
2019-04-25T02:23:44.151Z,7.97
2019-04-25T02:26:19.874Z,8.00
2019-04-25T02:28:55.167Z,6.50
2019-04-25T02:31:30.181Z,8.00
2019-04-25T02:34:08.133Z,6.27
2019-04-25T02:36:39.162Z,6.23
2019-04-25T02:39:24.576Z,6.10
2019-04-25T02:42:00.167Z,5.73
2019-04-25T02:44:34.345Z,6.23
2019-04-25T02:47:27.890Z,7.30
2019-04-25T02:50:38.826Z,6.17
2019-04-25T02:53:28.831Z,7.20
2019-04-25T02:56:07.963Z,7.17
2019-04-25T02:58:44.163Z,6.73
2019-04-25T03:01:22.314Z,6.53
2019-04-25T03:03:54.587Z,7.50
2019-04-25T03:06:30.129Z,6.70
2019-04-25T03:09:10.710Z,6.73
2019-04-25T03:11:47.404Z,6.80
2019-04-25T03:14:19.898Z,7.00
2019-04-25T03:16:56.034Z,6.37
2019-04-25T03:19:49.444Z,7.53
2019-04-25T03:22:31.085Z,7.30
2019-04-25T03:25:07.051Z,6.50
2019-04-25T03:27:37.979Z,6.57
2019-04-25T03:30:17.702Z,6.60
2019-04-25T03:32:51.683Z,7.33
2019-04-25T03:35:26.127Z,6.80
2019-04-25T03:37:58.488Z,6.87
2019-04-25T03:40:30.004Z,5.90
2019-04-25T03:43:06.247Z,6.60
2019-04-25T03:45:41.476Z,7.43
2019-04-25T03:48:16.825Z,6.93
2019-04-25T03:50:54.046Z,6.50
2019-04-25T03:53:27.488Z,7.17
2019-04-25T03:56:05.114Z,6.70
2019-04-25T03:58:39.504Z,6.10
2019-04-25T04:01:11.256Z,6.40
2019-04-25T04:03:45.658Z,6.50
2019-04-25T04:06:17.174Z,6.03
2019-04-25T04:08:51.318Z,9.10
2019-04-25T04:11:26.466Z,8.30
2019-04-25T04:17:57.507Z,9.43
2019-04-25T04:21:03.191Z,8.30
2019-04-25T04:23:40.808Z,8.50
2019-04-25T04:26:13.677Z,8.47
2019-04-25T04:28:51.100Z,10.00
2019-04-25T04:31:23.546Z,9.60
2019-04-25T04:33:56.800Z,9.40
2019-04-25T04:36:30.878Z,10.53
2019-04-25T04:39:08.835Z,9.57
2019-04-25T04:41:43.853Z,8.80
2019-04-25T04:44:20.240Z,10.10
2019-04-25T04:46:51.702Z,11.83
2019-04-25T04:49:25.090Z,9.33
2019-04-25T04:51:58.295Z,8.07
2019-04-25T04:54:31.655Z,9.90
2019-04-25T04:57:18.378Z,9.00
2019-04-25T04:59:43.841Z,9.07
2019-04-25T05:02:46.988Z,8.50
2019-04-25T05:05:37.261Z,9.63
2019-04-25T05:08:16.443Z,8.80
2019-04-25T05:10:51.614Z,8.43
2019-04-25T05:13:25.266Z,8.97
2019-04-25T05:15:57.129Z,9.60
2019-04-25T05:18:37.392Z,9.50
2019-04-25T05:21:05.099Z,8.97
2019-04-25T05:23:37.002Z,8.10
2019-04-25T05:26:09.267Z,8.43
2019-04-25T05:28:40.922Z,9.57
2019-04-25T05:31:25.685Z,10.60
2019-04-25T05:33:57.491Z,9.50
2019-04-25T05:36:38.227Z,9.60
2019-04-25T05:39:16.334Z,9.30
2019-04-25T05:42:07.727Z,22.77
2019-04-25T05:44:41.054Z,13.90
2019-04-25T05:47:15.064Z,9.40
2019-04-25T05:49:48.955Z,8.80
2019-04-25T05:52:20.726Z,11.37
2019-04-25T05:54:56.507Z,8.77
2019-04-25T05:57:45.235Z,9.27
2019-04-25T06:00:11.115Z,15.37
2019-04-25T06:02:46.315Z,11.60
2019-04-25T06:05:19.056Z,11.80
2019-04-25T06:08:28.056Z,10.13
2019-04-25T06:11:34.723Z,9.43
2019-04-25T06:14:08.958Z,9.80
2019-04-25T06:16:41.091Z,8.70
2019-04-25T06:19:30.263Z,10.23
2019-04-25T06:22:04.450Z,9.93
2019-04-25T06:24:46.585Z,8.33
2019-04-25T06:27:26.987Z,13.00
2019-04-25T06:30:05.305Z,18.93
2019-04-25T06:32:38.533Z,14.50
2019-04-25T06:35:12.329Z,10.10
2019-04-25T06:37:45.379Z,10.73
2019-04-25T06:40:23.896Z,9.13
2019-04-25T06:42:57.972Z,9.17
2019-04-25T06:46:00.321Z,9.07
2019-04-25T06:48:35.655Z,8.17
2019-04-25T06:51:08.041Z,8.73
2019-04-25T06:53:39.568Z,8.40
2019-04-25T06:56:11.096Z,8.83
2019-04-25T06:58:43.991Z,8.00
2019-04-25T07:01:15.430Z,7.13
2019-04-25T07:03:49.873Z,7.80
2019-04-25T07:06:24.765Z,7.83
2019-04-25T07:08:58.301Z,8.73
2019-04-25T07:11:30.493Z,8.00
2019-04-25T07:14:04.217Z,7.80
2019-04-25T07:16:38.727Z,6.73
2019-04-25T07:19:10.333Z,7.30
2019-04-25T07:21:44.358Z,7.20
2019-04-25T07:24:17.605Z,8.00
2019-04-25T07:27:07.898Z,8.10
2019-04-25T07:30:01.668Z,7.37
2019-04-25T07:32:43.872Z,8.60
2019-04-25T07:35:15.797Z,6.60
2019-04-25T07:37:48.606Z,8.30
2019-04-25T07:40:47.310Z,8.30
2019-04-25T07:43:19.902Z,8.00
2019-04-25T07:45:51.553Z,8.83
2019-04-25T07:48:26.775Z,7.33
2019-04-25T07:50:58.219Z,7.70
2019-04-25T07:53:30.689Z,7.60
2019-04-25T07:56:06.300Z,8.53
2019-04-25T07:58:49.649Z,7.90
2019-04-25T08:01:16.327Z,7.03
2019-04-25T08:03:49.014Z,8.00
2019-04-25T08:06:22.130Z,6.90
2019-04-25T08:08:55.417Z,8.10
2019-04-25T08:11:29.884Z,6.53
2019-04-25T08:14:07.375Z,6.87
2019-04-25T08:16:40.507Z,7.37
2019-04-25T08:19:13.802Z,7.90
2019-04-25T08:21:45.516Z,7.40
2019-04-25T08:24:17.314Z,7.77
2019-04-25T08:26:48.699Z,7.37
2019-04-25T08:29:22.895Z,6.97
2019-04-25T08:31:53.633Z,6.80
2019-04-25T08:34:27.214Z,6.87
2019-04-25T08:36:58.970Z,7.53
2019-04-25T08:39:31.588Z,7.33
2019-04-25T08:42:07.596Z,6.70
2019-04-25T08:44:43.741Z,7.10
2019-04-25T08:47:16.050Z,6.77
2019-04-25T08:50:01.213Z,7.50
2019-04-25T08:52:35.487Z,7.37
2019-04-25T08:55:15.537Z,7.43
2019-04-25T08:58:00.741Z,5.80
2019-04-25T09:01:01.395Z,5.73
2019-04-25T09:03:44.334Z,5.43
2019-04-25T09:06:17.040Z,6.13
2019-04-25T09:08:48.445Z,5.43
2019-04-25T09:11:25.664Z,6.57
2019-04-25T09:13:57.940Z,7.60
2019-04-25T09:16:30.513Z,6.20
2019-04-25T09:19:04.725Z,5.80
2019-04-25T09:21:37.751Z,5.00
2019-04-25T09:24:09.451Z,4.57
2019-04-25T09:26:40.877Z,4.03
2019-04-25T09:29:19.621Z,4.77
2019-04-25T09:31:49.659Z,6.23
2019-04-25T09:34:21.117Z,5.23
2019-04-25T09:36:55.695Z,4.93
2019-04-25T09:39:38.996Z,4.27
2019-04-25T09:42:10.349Z,4.90
2019-04-25T09:45:03.779Z,4.93
2019-04-25T09:47:37.760Z,4.70
2019-04-25T09:50:17.756Z,5.37
2019-04-25T09:52:49.222Z,4.50
2019-04-25T09:55:36.093Z,5.07
2019-04-25T09:58:16.591Z,4.70
2019-04-25T10:00:50.755Z,4.60
2019-04-25T10:03:27.101Z,4.90
2019-04-25T10:06:00.861Z,4.53
2019-04-25T10:08:37.393Z,4.00
2019-04-25T10:11:11.763Z,4.50
2019-04-25T10:13:50.088Z,4.23
2019-04-25T10:16:21.540Z,4.20
2019-04-25T10:19:19.524Z,4.40
2019-04-25T10:21:56.883Z,4.10
2019-04-25T10:24:30.716Z,4.57
2019-04-25T10:27:03.804Z,3.63
2019-04-25T10:29:44.939Z,4.30
2019-04-25T10:32:09.284Z,4.20
2019-04-25T10:34:41.183Z,4.90
2019-04-25T10:37:15.356Z,4.00
2019-04-25T10:39:47.498Z,4.77
2019-04-25T10:42:18.863Z,3.87
2019-04-25T10:44:53.990Z,4.20
2019-04-25T10:47:26.191Z,4.20
2019-04-25T10:49:59.350Z,4.57
2019-04-25T10:52:33.752Z,3.53
2019-04-25T10:55:06.571Z,4.20
2019-04-25T10:57:39.974Z,4.63
2019-04-25T11:00:29.443Z,4.30
2019-04-25T11:03:39.793Z,3.40
2019-04-25T11:06:15.226Z,3.40
2019-04-25T11:08:47.058Z,3.73
2019-04-25T11:11:21.785Z,3.60
2019-04-25T11:14:00.630Z,3.97
2019-04-25T11:16:38.106Z,3.80
2019-04-25T11:19:11.084Z,3.40
2019-04-25T11:21:45.207Z,3.47
2019-04-25T11:24:16.993Z,3.33
2019-04-25T11:26:50.446Z,3.50
2019-04-25T11:29:21.575Z,3.63
2019-04-25T11:31:53.494Z,3.80
2019-04-25T11:34:27.935Z,3.20
2019-04-25T11:37:00.615Z,3.30
2019-04-25T11:39:56.098Z,3.10
2019-04-25T11:42:31.111Z,3.00
2019-04-25T11:45:04.840Z,3.10
2019-04-25T11:47:38.718Z,3.10
2019-04-25T11:50:11.629Z,3.27
2019-04-25T11:52:44.772Z,3.50
2019-04-25T11:55:20.519Z,3.10
2019-04-25T11:57:54.964Z,2.90
2019-04-25T12:00:31.133Z,3.33
2019-04-25T12:03:03.662Z,3.07
2019-04-25T12:05:37.372Z,2.97
2019-04-25T12:08:19.924Z,3.50
2019-04-25T12:10:59.776Z,4.13
2019-04-25T12:13:31.655Z,3.20
2019-04-25T12:16:05.573Z,4.00
2019-04-25T12:18:38.558Z,3.13
2019-04-25T12:21:35.750Z,2.73
2019-04-25T12:24:07.958Z,3.43
2019-04-25T12:26:40.273Z,2.43
2019-04-25T12:29:11.680Z,3.23
2019-04-25T12:31:46.474Z,2.80
2019-04-25T12:34:18.480Z,2.70
2019-04-25T12:36:50.247Z,3.00
2019-04-25T12:39:26.916Z,2.40
2019-04-25T12:41:58.261Z,2.60
2019-04-25T12:45:05.114Z,2.80
2019-04-25T12:47:40.543Z,2.53
2019-04-25T12:50:14.402Z,4.00
2019-04-25T12:52:51.493Z,2.93
2019-04-25T12:55:25.191Z,3.17
2019-04-25T12:57:56.614Z,2.57
2019-04-25T13:00:30.606Z,3.10
2019-04-25T13:03:45.915Z,2.77
2019-04-25T13:06:36.377Z,2.27
2019-04-25T13:09:08.625Z,3.27
2019-04-25T13:11:41.295Z,4.20
2019-04-25T13:14:13.763Z,3.30
2019-04-25T13:16:46.641Z,3.37
2019-04-25T13:19:23.726Z,3.23
2019-04-25T13:21:51.008Z,2.97
2019-04-25T13:24:22.301Z,3.57
2019-04-25T13:27:03.601Z,3.40
2019-04-25T13:29:49.786Z,3.60
2019-04-25T13:32:45.033Z,4.03
2019-04-25T13:35:23.490Z,3.63
2019-04-25T13:37:59.341Z,3.40
2019-04-25T13:40:32.789Z,3.00
2019-04-25T13:43:06.432Z,3.43
2019-04-25T13:45:37.733Z,3.27
2019-04-25T13:48:09.261Z,3.60
2019-04-25T13:50:40.616Z,3.10
2019-04-25T13:53:13.678Z,3.03
2019-04-25T13:55:47.210Z,3.37
2019-04-25T13:58:18.883Z,3.63
2019-04-25T14:00:50.706Z,3.40
2019-04-25T14:03:23.623Z,3.13
2019-04-25T14:05:58.994Z,3.50
2019-04-25T14:08:33.486Z,2.60
2019-04-25T14:11:11.181Z,3.30
2019-04-25T14:13:50.129Z,3.30
2019-04-25T14:16:45.093Z,3.30
2019-04-25T14:19:37.492Z,3.43
2019-04-25T14:22:10.946Z,3.33
2019-04-25T14:24:44.047Z,3.40
2019-04-25T14:27:17.921Z,2.93
2019-04-25T14:29:49.472Z,3.10
2019-04-25T14:32:21.445Z,3.70
2019-04-25T14:34:55.822Z,4.53
2019-04-25T14:37:32.261Z,3.13
2019-04-25T14:40:03.950Z,3.20
2019-04-25T14:42:35.571Z,3.00
2019-04-25T14:45:08.464Z,2.70
2019-04-25T14:47:43.919Z,2.80
2019-04-25T14:50:19.961Z,3.00
2019-04-25T14:52:56.127Z,2.90
2019-04-25T14:58:48.572Z,3.33
2019-04-25T15:01:23.939Z,2.73
2019-04-25T15:03:57.341Z,2.50
2019-04-25T15:06:36.188Z,2.77
2019-04-25T15:09:11.366Z,2.63
2019-04-25T15:14:58.046Z,2.80
2019-04-25T15:17:29.468Z,3.57
2019-04-25T15:20:03.245Z,2.53
2019-04-25T15:22:37.298Z,3.60
2019-04-25T15:25:08.787Z,3.40
2019-04-25T15:27:40.446Z,2.93
2019-04-25T15:30:19.900Z,2.67
2019-04-25T15:32:53.631Z,2.87
2019-04-25T15:35:30.410Z,3.03
2019-04-25T15:38:06.666Z,2.90
2019-04-25T15:40:44.177Z,3.90
2019-04-25T15:43:23.559Z,3.40
2019-04-25T15:46:14.876Z,2.90
2019-04-25T15:48:46.582Z,3.00
2019-04-25T15:51:18.288Z,3.03
2019-04-25T15:53:49.778Z,3.67
2019-04-25T15:56:21.190Z,3.53
2019-04-25T15:58:52.500Z,2.60
2019-04-25T16:01:23.889Z,2.57
2019-04-25T16:03:55.579Z,2.77
2019-04-25T16:06:29.819Z,3.00
2019-04-25T16:09:04.616Z,2.20
2019-04-25T16:11:37.780Z,3.00
2019-04-25T16:14:09.219Z,2.93
2019-04-25T16:16:45.089Z,2.70
2019-04-25T16:19:34.785Z,3.10
2019-04-25T16:22:08.185Z,2.60
2019-04-25T16:24:39.591Z,2.67
2019-04-25T16:27:11.804Z,3.00
2019-04-25T16:29:43.279Z,2.60
2019-04-25T16:32:21.167Z,2.83
2019-04-25T16:34:57.540Z,2.63
2019-04-25T16:37:34.517Z,2.90
2019-04-25T16:40:10.156Z,2.83
2019-04-25T16:42:41.782Z,2.50
2019-04-25T16:45:15.781Z,3.23
2019-04-25T16:47:47.700Z,3.50
2019-04-25T16:50:26.244Z,3.40
2019-04-25T16:52:57.625Z,2.80
2019-04-25T16:55:30.382Z,3.20
2019-04-25T16:58:06.277Z,3.00
2019-04-25T17:00:52.320Z,3.30
2019-04-25T17:03:29.946Z,3.33
2019-04-25T17:06:06.235Z,2.63
2019-04-25T17:08:37.797Z,3.87
2019-04-25T17:11:09.988Z,4.40
2019-04-25T17:14:02.023Z,7.07
2019-04-25T17:17:01.221Z,9.40
2019-04-25T17:19:45.102Z,8.83
2019-04-25T17:22:16.482Z,7.87
2019-04-25T17:24:56.512Z,8.63
2019-04-25T17:27:30.729Z,4.93
2019-04-25T17:30:06.685Z,10.10
2019-04-25T17:32:55.966Z,17.20
2019-04-25T17:35:46.950Z,5.23
2019-04-25T17:38:24.968Z,5.03
2019-04-25T17:40:56.657Z,6.70
2019-04-25T17:43:30.228Z,7.33
2019-04-25T17:46:01.801Z,5.23
2019-04-25T17:48:38.104Z,3.87
2019-04-25T17:51:10.171Z,11.40
2019-04-25T17:53:46.104Z,21.00
2019-04-25T17:56:29.141Z,11.87
2019-04-25T17:59:00.696Z,6.30
2019-04-25T18:01:35.992Z,11.80
2019-04-25T18:04:07.566Z,19.90
2019-04-25T18:06:39.997Z,8.87
2019-04-25T18:09:14.839Z,13.57
2019-04-25T18:11:46.689Z,10.00
2019-04-25T18:14:21.087Z,8.60
2019-04-25T18:16:56.543Z,6.97
2019-04-25T18:20:02.301Z,8.17
2019-04-25T18:22:58.797Z,9.67
2019-04-25T18:25:52.494Z,29.77
2019-04-25T18:28:51.080Z,15.20
2019-04-25T18:31:22.689Z,7.43
2019-04-25T18:34:00.895Z,4.27
2019-04-25T18:36:45.054Z,3.67
2019-04-25T18:39:32.483Z,4.13
2019-04-25T18:42:28.431Z,4.33
2019-04-25T18:45:00.945Z,3.23
2019-04-25T18:47:32.833Z,3.80
2019-04-25T18:50:09.531Z,18.40
2019-04-25T18:53:15.317Z,23.30
2019-04-25T18:55:59.444Z,10.67
2019-04-25T18:58:46.744Z,9.70
2019-04-25T19:01:31.008Z,10.27
2019-04-25T19:04:35.188Z,4.70
2019-04-25T19:07:08.636Z,4.70
2019-04-25T19:09:41.255Z,3.80
2019-04-25T19:12:15.169Z,4.07
2019-04-25T19:14:47.374Z,4.20
2019-04-25T19:17:21.046Z,5.17
2019-04-25T19:19:52.477Z,3.90
2019-04-25T19:22:29.387Z,3.60
2019-04-25T19:25:01.057Z,15.10
2019-04-25T19:27:34.125Z,17.87
2019-04-25T19:30:13.532Z,13.40
2019-04-25T19:32:49.118Z,5.40
2019-04-25T19:35:20.604Z,4.10
2019-04-25T19:37:53.758Z,4.00
2019-04-25T19:40:38.285Z,4.07
2019-04-25T19:43:15.953Z,3.73
2019-04-25T19:45:51.236Z,4.73
2019-04-25T19:48:25.418Z,4.43
2019-04-25T19:50:57.146Z,4.10
2019-04-25T19:53:30.203Z,3.57
2019-04-25T19:56:04.825Z,3.50
2019-04-25T19:58:38.529Z,4.60
2019-04-25T20:01:13.375Z,4.23
2019-04-25T20:03:58.014Z,4.90
2019-04-25T20:06:45.494Z,11.70
2019-04-25T20:09:39.787Z,23.30
2019-04-25T20:12:12.309Z,15.77
2019-04-25T20:14:47.201Z,6.27
2019-04-25T20:18:08.800Z,5.47
2019-04-25T20:20:43.637Z,6.80
2019-04-25T20:26:34.055Z,3.90
2019-04-25T20:29:07.546Z,4.07
2019-04-25T20:31:50.629Z,4.63
2019-04-25T20:34:26.655Z,4.00
2019-04-25T20:41:57.373Z,4.47
2019-04-25T20:51:48.441Z,12.07
2019-04-25T20:54:19.962Z,5.47
2019-04-25T20:56:54.253Z,4.80
2019-04-25T20:59:31.218Z,4.20
2019-04-25T21:02:10.353Z,4.00
2019-04-25T21:04:47.773Z,4.20
2019-04-25T21:07:22.209Z,4.23
2019-04-25T21:09:59.474Z,4.33
2019-04-25T21:12:33.274Z,5.00
2019-04-25T21:15:17.811Z,4.43
2019-04-25T21:18:07.032Z,4.77
2019-04-25T21:20:43.937Z,4.10
2019-04-25T21:23:20.130Z,4.20
2019-04-25T21:25:53.000Z,3.90
2019-04-25T21:28:29.143Z,3.77
2019-04-25T21:31:02.392Z,4.13
2019-04-25T21:33:34.977Z,3.80
2019-04-25T21:36:09.105Z,3.60
2019-04-25T21:38:44.071Z,3.50
2019-04-25T21:41:33.522Z,3.37
2019-04-25T21:44:08.787Z,3.83
2019-04-25T21:46:40.402Z,4.17
2019-04-25T21:49:17.224Z,3.70
2019-04-25T21:51:49.090Z,4.47
2019-04-25T21:54:21.736Z,4.20
2019-04-25T21:56:54.227Z,5.50
2019-04-25T21:59:32.414Z,4.60
2019-04-25T22:02:09.657Z,4.50
2019-04-25T22:04:44.914Z,3.60
2019-04-25T22:07:19.704Z,5.13
2019-04-25T22:09:55.474Z,4.30
2019-04-25T22:12:27.321Z,3.87
2019-04-25T22:14:59.361Z,3.93
2019-04-25T22:17:31.774Z,4.00
2019-04-25T22:20:40.991Z,33.90
2019-04-25T22:23:15.483Z,13.53
2019-04-25T22:25:50.704Z,11.67
2019-04-25T22:28:26.278Z,11.63
2019-04-25T22:31:02.075Z,6.70
2019-04-25T22:33:50.312Z,4.20
2019-04-25T22:36:24.408Z,4.50
2019-04-25T22:39:12.783Z,4.00
2019-04-25T22:41:48.891Z,4.00
2019-04-25T22:44:22.374Z,4.10
2019-04-25T22:46:56.584Z,3.73
2019-04-25T22:49:28.799Z,4.67
2019-04-25T22:52:03.112Z,3.73
2019-04-25T22:54:43.515Z,5.13
2019-04-25T22:57:17.594Z,3.80
2019-04-25T22:59:51.063Z,4.33
2019-04-25T23:02:31.763Z,5.17
2019-04-25T23:05:17.159Z,4.57
2019-04-25T23:07:51.325Z,4.63
2019-04-25T23:10:26.969Z,4.67
2019-04-25T23:12:58.335Z,4.73
2019-04-25T23:15:31.784Z,5.47
2019-04-25T23:18:04.305Z,4.90
2019-04-25T23:20:37.579Z,4.40
2019-04-25T23:23:11.698Z,4.97
2019-04-25T23:26:11.815Z,4.47
2019-04-25T23:28:44.745Z,5.50
2019-04-25T23:31:26.875Z,4.77
2019-04-25T23:33:58.460Z,4.87
2019-04-25T23:36:29.812Z,5.17
2019-04-25T23:39:01.161Z,4.90
2019-04-25T23:41:32.753Z,4.90
2019-04-25T23:44:05.405Z,5.87
2019-04-25T23:46:39.159Z,4.80
2019-04-25T23:49:10.616Z,4.53
2019-04-25T23:51:46.479Z,4.87
2019-04-25T23:54:25.066Z,5.13
2019-04-25T23:56:56.628Z,5.33
2019-04-25T23:59:30.305Z,4.83
